Storm Events Database

Event Details

Event Tornado
-- Scale EF3
-- Length 7.99 Miles
-- Width 1760 Yards
State TEXAS
County/Area GRAY
WFO AMA
Report Source NWS Storm Survey
NCDC Data Source CSV
Begin Date 2007-03-28 19:45:00.0 CST-6
Begin Location 7NNE MC LEAN
Begin Lat/Lon 35.32/-100.55
End Date 2007-03-28 20:00:00.0 CST-6
End Location 14N MC LEAN
End Lat/Lon 35.43/-100.6
Deaths Direct/Indirect 0/0 (fatality details below, when available...)
Injuries Direct/Indirect 0/0
Property Damage 27.00K
Crop Damage
Episode Narrative Severe thunderstorms during the evening hours produced numerous tornadoes and large hail across the southern...central and eastern Texas panhandle. Heavy rains caused flash flooding in the eastern Texas panhandle during the late night and early morning hours. One man was killed by a tornado in the northeastern Texas panhandle and another person was injured.
Event Narrative This tornado developed from the same storm that moved just east of McLean. The initial circulation developed eight miles north northeast of McLean at 1945 CST and was initially moving northeast at forty miles per hour. As it crossed Farm to Market Road 2473 at the McClellan Creek bridge...high-tension power lines supported by double wooden pole structures were broken or snapped at the ground at several locations. Numerous hard and softwood trees were debarked with only stubs remaining. At 1949 CST...the tornado moved more northwesterly and accelerated to forty-five miles per hour. A local rancher...who lives seven miles northwest of Kellerville heard the tornado approaching and took shelter. Damage to his property included a covered porch that was completely blown off and steel roofing was peeled back on the the southward facing side. A brick chimney also collapsed. Several trees...as much as two hundred feet from the west edge of the house...were blown down. A bunkhouse on the property lost of the roof. An anchored large steel feed bunk was pulled out of the ground. No injuries were reported.


     ‚Äč



All events for this episode:

Location County/Zone St. Date Time T.Z. Type Mag Dth Inj PrD CrD
Totals: 1 5 3.820M 0.00K
CLAUDE ARMSTRONG CO. TX 03/28/2007 16:50 CST-6 Hail 1.00 in. 0 0 0.00K 0.00K
CLAUDE ARMSTRONG CO. TX 03/28/2007 16:50 CST-6 Hail 0.88 in. 0 0 0.00K 0.00K
WAYSIDE ARMSTRONG CO. TX 03/28/2007 16:50 CST-6 Hail 2.75 in. 0 0 0.00K 0.00K
CLAUDE ARMSTRONG CO. TX 03/28/2007 16:51 CST-6 Hail 1.00 in. 0 0 0.00K 0.00K
AMARILLO POTTER CO. TX 03/28/2007 17:25 CST-6 Hail 2.75 in. 0 0 11.00K 0.00K
PANTEX CARSON CO. TX 03/28/2007 17:25 CST-6 Hail 2.75 in. 0 0 14.00K 0.00K
PANHANDLE CARSON CO. TX 03/28/2007 17:26 CST-6 Hail 2.75 in. 0 0 0.00K 0.00K
PANTEX CARSON CO. TX 03/28/2007 17:29 CST-6 Hail 1.25 in. 0 0 0.00K 0.00K
AMARILLO POTTER CO. TX 03/28/2007 17:30 CST-6 Thunderstorm Wind 61 kts. EG 0 0 12.00K 0.00K
PERRYTON OCHILTREE CO. TX 03/28/2007 17:30 CST-6 Hail 1.00 in. 0 0 0.00K 0.00K
BOOKER LIPSCOMB CO. TX 03/28/2007 17:35 CST-6 Hail 0.88 in. 0 0 0.00K 0.00K
PANHANDLE CARSON CO. TX 03/28/2007 17:37 CST-6 Hail 2.00 in. 0 0 0.00K 0.00K
CLARENDON DONLEY CO. TX 03/28/2007 17:40 CST-6 Tornado EF0 0 0 0.00K 0.00K
DARROUZETT LIPSCOMB CO. TX 03/28/2007 17:40 CST-6 Hail 0.75 in. 0 0 0.00K 0.00K
PANTEX CARSON CO. TX 03/28/2007 17:40 CST-6 Hail 4.50 in. 0 0 0.00K 0.00K
BORGER HUTCHINSON CO. TX 03/28/2007 17:45 CST-6 Hail 1.00 in. 0 0 0.00K 0.00K
SANFORD HUTCHINSON CO. TX 03/28/2007 17:47 CST-6 Hail 1.75 in. 0 0 0.00K 0.00K
BORGER HUTCHINSON CO. TX 03/28/2007 17:50 CST-6 Hail 2.00 in. 0 0 0.00K 0.00K
CLARENDON DONLEY CO. TX 03/28/2007 17:55 CST-6 Tornado EF1 0 0 5.00K 0.00K
STINNETT HUTCHINSON CO. TX 03/28/2007 17:59 CST-6 Hail 1.75 in. 0 0 0.00K 0.00K
CLAUDE ARMSTRONG CO. TX 03/28/2007 18:00 CST-6 Hail 1.75 in. 0 0 0.00K 0.00K
CLAUDE ARMSTRONG CO. TX 03/28/2007 18:00 CST-6 Hail 1.00 in. 0 0 0.00K 0.00K
FRITCH HUTCHINSON CO. TX 03/28/2007 18:00 CST-6 Hail 1.75 in. 0 0 0.00K 0.00K
CLARENDON DONLEY CO. TX 03/28/2007 18:05 CST-6 Tornado EF0 0 0 0.00K 0.00K
BOOKER LIPSCOMB CO. TX 03/28/2007 18:08 CST-6 Hail 2.75 in. 0 0 0.00K 0.00K
STINNETT HUTCHINSON CO. TX 03/28/2007 18:10 CST-6 Hail 1.75 in. 0 0 0.00K 0.00K
MORSE HANSFORD CO. TX 03/28/2007 18:12 CST-6 Hail 1.50 in. 0 0 0.00K 0.00K
CLARENDON DONLEY CO. TX 03/28/2007 18:15 CST-6 Hail 1.00 in. 0 0 0.00K 0.00K
STINNETT HUTCHINSON CO. TX 03/28/2007 18:15 CST-6 Hail 1.00 in. 0 0 0.00K 0.00K
BOOKER LIPSCOMB CO. TX 03/28/2007 18:16 CST-6 Tornado EF0 0 0 0.00K 0.00K
GRUVER HANSFORD CO. TX 03/28/2007 18:20 CST-6 Hail 0.88 in. 0 0 0.00K 0.00K
CLARENDON DONLEY CO. TX 03/28/2007 18:22 CST-6 Thunderstorm Wind 52 kts. EG 0 0 34.00K 0.00K
JERICHO DONLEY CO. TX 03/28/2007 18:39 CST-6 Tornado EF3 0 2 180.00K 0.00K
CLAUDE ARMSTRONG CO. TX 03/28/2007 18:45 CST-6 Hail 1.00 in. 0 0 0.00K 0.00K
HEDLEY DONLEY CO. TX 03/28/2007 18:46 CST-6 Tornado EF2 0 0 63.00K 0.00K
LEFORS GRAY CO. TX 03/28/2007 18:48 CST-6 Tornado EF3 0 2 100.00K 0.00K
HEDLEY DONLEY CO. TX 03/28/2007 19:02 CST-6 Tornado EF0 0 0 0.00K 0.00K
MIAMI ROBERTS CO. TX 03/28/2007 19:05 CST-6 Hail 0.75 in. 0 0 0.00K 0.00K
PAMPA GRAY CO. TX 03/28/2007 19:05 CST-6 Hail 0.88 in. 0 0 0.00K 0.00K
HOWARDWICK DONLEY CO. TX 03/28/2007 19:07 CST-6 Hail 2.75 in. 0 0 0.00K 0.00K
MC LEAN GRAY CO. TX 03/28/2007 19:10 CST-6 Hail 2.75 in. 0 0 0.00K 0.00K
JERICHO DONLEY CO. TX 03/28/2007 19:13 CST-6 Tornado EF2 0 0 170.00K 0.00K
JERICHO DONLEY CO. TX 03/28/2007 19:15 CST-6 Tornado EF0 0 0 0.00K 0.00K
CANYON RANDALL CO. TX 03/28/2007 19:23 CST-6 Hail 1.25 in. 0 0 0.00K 0.00K
MC LEAN GRAY CO. TX 03/28/2007 19:23 CST-6 Tornado EF2 0 0 74.00K 0.00K
CANYON RANDALL CO. TX 03/28/2007 19:26 CST-6 Hail 1.00 in. 0 0 0.00K 0.00K
LEFORS GRAY CO. TX 03/28/2007 19:30 CST-6 Tornado EF0 0 0 3.00K 0.00K
MC LEAN GRAY CO. TX 03/28/2007 19:30 CST-6 Hail 2.75 in. 0 0 0.00K 0.00K
MC LEAN GRAY CO. TX 03/28/2007 19:34 CST-6 Hail 2.75 in. 0 0 0.00K 0.00K
ALANREED GRAY CO. TX 03/28/2007 19:35 CST-6 Hail 1.00 in. 0 0 0.00K 0.00K
AMARILLO RANDALL CO. TX 03/28/2007 19:35 CST-6 Hail 0.88 in. 0 0 0.00K 0.00K
AMARILLO POTTER CO. TX 03/28/2007 19:36 CST-6 Hail 0.75 in. 0 0 0.00K 0.00K
LEFORS GRAY CO. TX 03/28/2007 19:36 CST-6 Tornado EF1 0 0 39.00K 0.00K
PANHANDLE CARSON CO. TX 03/28/2007 19:37 CST-6 Thunderstorm Wind 76 kts. EG 0 0 0.00K 0.00K
FRITCH HUTCHINSON CO. TX 03/28/2007 19:40 CST-6 Hail 0.88 in. 0 0 0.00K 0.00K
AMARILLO POTTER CO. TX 03/28/2007 19:45 CST-6 Hail 1.00 in. 0 0 0.00K 0.00K
KINGS MILL GRAY CO. TX 03/28/2007 19:45 CST-6 Hail 0.75 in. 0 0 0.00K 0.00K
MC LEAN GRAY CO. TX 03/28/2007 19:45 CST-6 Tornado EF3 0 0 27.00K 0.00K
CANYON RANDALL CO. TX 03/28/2007 19:52 CST-6 Hail 0.88 in. 0 0 0.00K 0.00K
AMARILLO POTTER CO. TX 03/28/2007 20:20 CST-6 Hail 1.75 in. 0 0 0.00K 0.00K
HEREFORD DEAF SMITH CO. TX 03/28/2007 20:25 CST-6 Hail 0.88 in. 0 0 0.00K 0.00K
AMARILLO POTTER CO. TX 03/28/2007 20:26 CST-6 Hail 0.88 in. 0 0 0.00K 0.00K
CANADIAN HEMPHILL CO. TX 03/28/2007 20:30 CST-6 Hail 1.75 in. 0 0 0.00K 0.00K
CANADIAN HEMPHILL CO. TX 03/28/2007 20:30 CST-6 Tornado EF3 1 1 3.000M 0.00K
GRUVER HANSFORD CO. TX 03/28/2007 20:30 CST-6 Hail 1.00 in. 0 0 0.00K 0.00K
LEFORS GRAY CO. TX 03/28/2007 20:30 CST-6 Hail 2.75 in. 0 0 0.00K 0.00K
CANYON RANDALL CO. TX 03/28/2007 20:40 CST-6 Hail 0.88 in. 0 0 0.00K 0.00K
AMARILLO POTTER CO. TX 03/28/2007 20:45 CST-6 Hail 1.00 in. 0 0 0.00K 0.00K
MIAMI ROBERTS CO. TX 03/28/2007 20:45 CST-6 Thunderstorm Wind 61 kts. EG 0 0 43.00K 0.00K
CANADIAN HEMPHILL CO. TX 03/28/2007 20:58 CST-6 Hail 0.88 in. 0 0 0.00K 0.00K
CANADIAN HEMPHILL CO. TX 03/28/2007 21:00 CST-6 Thunderstorm Wind 52 kts. EG 0 0 0.00K 0.00K
CANADIAN HEMPHILL CO. TX 03/28/2007 21:00 CST-6 Hail 1.75 in. 0 0 0.00K 0.00K
CANADIAN HEMPHILL CO. TX 03/28/2007 21:00 CST-6 Hail 1.25 in. 0 0 0.00K 0.00K
PAMPA GRAY CO. TX 03/28/2007 21:00 CST-6 Hail 1.00 in. 0 0 0.00K 0.00K
BOOKER LIPSCOMB CO. TX 03/28/2007 21:04 CST-6 Hail 0.75 in. 0 0 0.00K 0.00K
GLAZIER HEMPHILL CO. TX 03/28/2007 21:18 CST-6 Hail 0.75 in. 0 0 0.00K 0.00K
STINNETT HUTCHINSON CO. TX 03/28/2007 21:20 CST-6 Hail 1.75 in. 0 0 0.00K 0.00K
FRITCH HUTCHINSON CO. TX 03/28/2007 21:25 CST-6 Hail 1.00 in. 0 0 0.00K 0.00K
CLAUDE ARMSTRONG CO. TX 03/28/2007 22:12 CST-6 Thunderstorm Wind 57 kts. EG 0 0 0.00K 0.00K
CLAUDE ARMSTRONG CO. TX 03/28/2007 22:18 CST-6 Hail 0.75 in. 0 0 0.00K 0.00K
CLAUDE ARMSTRONG CO. TX 03/28/2007 22:18 CST-6 Hail 1.00 in. 0 0 0.00K 0.00K
CLAUDE ARMSTRONG CO. TX 03/28/2007 22:20 CST-6 Hail 0.75 in. 0 0 0.00K 0.00K
DARROUZETT LIPSCOMB CO. TX 03/28/2007 22:24 CST-6 Thunderstorm Wind 80 kts. EG 0 0 9.00K 0.00K
CLAUDE ARMSTRONG CO. TX 03/28/2007 22:26 CST-6 Thunderstorm Wind 56 kts. EG 0 0 28.00K 0.00K
MIAMI ROBERTS CO. TX 03/28/2007 22:41 CST-6 Hail 1.00 in. 0 0 0.00K 0.00K
LEFORS GRAY CO. TX 03/28/2007 23:20 CST-6 Flash Flood 0 0 8.00K 0.00K
CLARENDON DONLEY CO. TX 03/28/2007 23:30 CST-6 Hail 0.75 in. 0 0 0.00K 0.00K
Totals: 1 5 3.820M 0.00K